createdAt,value
2022-12-01T00:00:12.935Z,34.40
2022-12-01T00:03:15.202Z,38.25
2022-12-01T00:06:20.312Z,34.83
2022-12-01T00:09:40.840Z,36.30
2022-12-01T00:12:43.641Z,35.38
2022-12-01T00:15:45.747Z,35.10
2022-12-01T00:18:50.537Z,36.30
2022-12-01T00:21:52.822Z,35.97
2022-12-01T00:24:54.879Z,36.45
2022-12-01T00:27:57.458Z,35.83
2022-12-01T00:31:00.276Z,35.08
2022-12-01T00:34:05.594Z,34.92
2022-12-01T00:37:10.627Z,36.13
2022-12-01T00:40:13.435Z,35.90
2022-12-01T00:43:15.706Z,36.95
2022-12-01T00:46:18.916Z,38.00
2022-12-01T00:49:21.089Z,37.05
2022-12-01T00:52:23.130Z,35.70
2022-12-01T00:55:25.400Z,37.17
2022-12-01T00:58:27.927Z,38.13
2022-12-01T01:01:29.990Z,36.95
2022-12-01T01:04:34.513Z,37.75
2022-12-01T01:07:37.113Z,37.40
2022-12-01T01:10:40.893Z,37.90
2022-12-01T01:13:42.943Z,37.47
2022-12-01T01:16:45.021Z,38.17
2022-12-01T01:19:47.698Z,37.58
2022-12-01T01:22:50.026Z,37.28
2022-12-01T01:25:52.380Z,37.13
2022-12-01T01:28:57.741Z,35.78
2022-12-01T01:31:59.761Z,36.15
2022-12-01T01:35:01.805Z,35.50
2022-12-01T01:38:03.876Z,37.13
2022-12-01T01:41:06.975Z,35.40
2022-12-01T01:45:00.333Z,36.22
2022-12-01T01:48:03.785Z,34.85
2022-12-01T01:51:06.463Z,35.67
2022-12-01T01:54:15.709Z,35.67
2022-12-01T01:57:24.389Z,36.38
2022-12-01T02:00:26.747Z,35.17
2022-12-01T02:03:30.244Z,34.92
2022-12-01T02:06:32.276Z,35.80
2022-12-01T02:09:35.617Z,36.40
2022-12-01T02:13:05.772Z,36.72
2022-12-01T02:16:19.074Z,38.17
2022-12-01T02:19:44.917Z,37.03
2022-12-01T02:23:14.672Z,37.08
2022-12-01T02:26:49.963Z,34.70
2022-12-01T02:30:13.070Z,35.30
2022-12-01T02:33:26.843Z,35.53
2022-12-01T02:36:40.157Z,36.05
2022-12-01T02:40:03.555Z,37.78
2022-12-01T02:43:20.903Z,36.30
2022-12-01T02:46:29.588Z,35.85
2022-12-01T02:49:39.404Z,38.07
2022-12-01T02:55:54.022Z,34.30
2022-12-01T02:58:56.120Z,35.22
2022-12-01T03:02:16.085Z,37.10
2022-12-01T03:05:36.163Z,35.58
2022-12-01T03:08:52.985Z,34.45
2022-12-01T03:12:12.983Z,36.95
2022-12-01T03:15:55.968Z,34.22
2022-12-01T03:19:03.268Z,36.67
2022-12-01T03:22:11.120Z,34.80
2022-12-01T03:25:14.538Z,36.70
2022-12-01T03:28:23.133Z,35.30
2022-12-01T03:31:30.854Z,35.53
2022-12-01T03:34:43.728Z,35.33
2022-12-01T03:38:03.427Z,35.95
2022-12-01T03:41:15.280Z,34.75
2022-12-01T03:44:22.822Z,34.33
2022-12-01T03:47:29.529Z,34.95
2022-12-01T03:50:50.154Z,34.90
2022-12-01T03:54:08.708Z,34.10
2022-12-01T03:57:14.617Z,35.38
2022-12-01T04:00:19.874Z,35.47
2022-12-01T04:03:25.748Z,34.00
2022-12-01T04:06:27.868Z,34.13
2022-12-01T04:09:30.035Z,34.22
2022-12-01T04:12:35.461Z,35.47
2022-12-01T04:15:37.938Z,33.67
2022-12-01T04:18:39.988Z,33.10
2022-12-01T04:21:42.244Z,34.28
2022-12-01T04:24:44.333Z,34.40
2022-12-01T04:27:46.344Z,33.83
2022-12-01T04:30:48.326Z,34.22
2022-12-01T04:33:50.486Z,32.65
2022-12-01T04:36:52.523Z,34.33
2022-12-01T04:39:54.479Z,31.98
2022-12-01T04:42:56.516Z,33.80
2022-12-01T04:45:58.509Z,34.78
2022-12-01T04:49:00.591Z,32.88
2022-12-01T04:52:02.681Z,32.72
2022-12-01T04:55:04.950Z,32.15
2022-12-01T04:58:07.213Z,33.42
2022-12-01T05:01:11.938Z,32.03
2022-12-01T05:04:14.775Z,32.60
2022-12-01T05:07:18.072Z,31.10
2022-12-01T05:10:20.338Z,31.95
2022-12-01T05:13:22.501Z,32.08
2022-12-01T05:16:27.196Z,32.00
2022-12-01T05:19:48.997Z,31.73
2022-12-01T05:23:10.890Z,31.20
2022-12-01T05:26:14.706Z,32.83
2022-12-01T05:29:16.884Z,32.22
2022-12-01T05:32:18.881Z,33.90
2022-12-01T05:35:20.859Z,34.58
2022-12-01T05:38:23.464Z,33.47
2022-12-01T05:41:25.747Z,31.85
2022-12-01T05:44:27.877Z,33.15
2022-12-01T05:47:29.880Z,32.40
2022-12-01T05:50:32.760Z,32.33
2022-12-01T05:53:34.782Z,32.05
2022-12-01T05:56:36.850Z,31.50
2022-12-01T05:59:38.910Z,33.97
2022-12-01T06:02:41.765Z,32.10
2022-12-01T06:05:43.775Z,39.30
2022-12-01T06:08:45.822Z,39.53
2022-12-01T06:11:51.260Z,38.38
2022-12-01T06:14:54.597Z,35.08
2022-12-01T06:17:59.586Z,36.08
2022-12-01T06:21:02.264Z,33.25
2022-12-01T06:24:04.557Z,34.00
2022-12-01T06:27:07.408Z,33.42
2022-12-01T06:30:09.902Z,33.97
2022-12-01T06:33:12.362Z,33.33
2022-12-01T06:36:14.488Z,33.28
2022-12-01T06:39:17.561Z,33.70
2022-12-01T06:42:19.694Z,34.33
2022-12-01T06:45:21.703Z,32.60
2022-12-01T06:48:23.857Z,34.45
2022-12-01T06:51:25.906Z,33.83
2022-12-01T06:54:28.016Z,33.08
2022-12-01T06:57:30.754Z,33.03
2022-12-01T07:00:33.007Z,33.65
2022-12-01T07:03:35.692Z,33.55
2022-12-01T07:06:37.800Z,34.22
2022-12-01T07:09:39.930Z,34.70
2022-12-01T07:12:42.042Z,35.20
2022-12-01T07:15:44.407Z,35.78
2022-12-01T07:18:46.456Z,37.05
2022-12-01T07:21:49.029Z,34.00
2022-12-01T07:24:51.036Z,34.10
2022-12-01T07:27:53.036Z,35.22
2022-12-01T07:31:01.188Z,35.00
2022-12-01T07:34:03.693Z,35.28
2022-12-01T07:37:05.742Z,35.15
2022-12-01T07:40:10.184Z,34.67
2022-12-01T07:43:12.242Z,34.42
2022-12-01T07:46:24.013Z,35.33
2022-12-01T07:49:26.389Z,35.10
2022-12-01T07:52:28.437Z,35.13
2022-12-01T07:55:30.440Z,34.60
2022-12-01T07:58:32.974Z,35.00
2022-12-01T08:01:35.202Z,34.65
2022-12-01T08:04:37.313Z,34.45
2022-12-01T08:07:39.488Z,34.35
2022-12-01T08:10:41.607Z,34.95
2022-12-01T08:13:44.187Z,34.47
2022-12-01T08:16:47.754Z,36.67
2022-12-01T08:19:50.431Z,33.65
2022-12-01T08:22:52.772Z,35.78
2022-12-01T08:26:04.082Z,34.65
2022-12-01T08:29:06.511Z,34.20
2022-12-01T08:32:08.537Z,35.10
2022-12-01T08:35:10.984Z,35.75
2022-12-01T08:38:13.046Z,35.47
2022-12-01T08:41:15.857Z,34.35
2022-12-01T08:44:17.881Z,36.70
2022-12-01T08:47:19.984Z,37.28
2022-12-01T08:50:22.007Z,36.95
2022-12-01T08:53:24.167Z,38.03
2022-12-01T08:56:29.882Z,38.05
2022-12-01T08:59:31.911Z,37.33
2022-12-01T09:02:34.116Z,36.30
2022-12-01T09:05:36.166Z,33.90
2022-12-01T09:08:38.863Z,33.65
2022-12-01T09:11:43.726Z,33.33
2022-12-01T09:14:48.357Z,31.10
2022-12-01T09:17:50.385Z,29.40
2022-12-01T09:20:52.888Z,30.02
2022-12-01T09:23:54.863Z,29.25
2022-12-01T09:26:59.004Z,29.23
2022-12-01T09:30:01.053Z,27.95
2022-12-01T09:33:03.369Z,28.60
2022-12-01T09:36:07.610Z,28.75
2022-12-01T09:39:13.346Z,29.30
2022-12-01T09:42:18.581Z,28.05
2022-12-01T09:45:34.176Z,27.83
2022-12-01T09:48:43.496Z,27.85
2022-12-01T09:51:45.664Z,26.38
2022-12-01T09:54:48.666Z,24.85
2022-12-01T09:57:53.867Z,25.73
2022-12-01T10:00:57.458Z,24.65
2022-12-01T10:04:14.744Z,24.10
2022-12-01T10:07:28.676Z,24.50
2022-12-01T10:10:35.776Z,24.60
2022-12-01T10:13:37.894Z,24.98
2022-12-01T10:16:58.394Z,22.85
2022-12-01T10:20:27.040Z,22.05
2022-12-01T10:23:49.078Z,23.70
2022-12-01T10:27:06.062Z,22.25
2022-12-01T10:30:16.111Z,21.73
2022-12-01T10:33:34.067Z,22.33
2022-12-01T10:36:36.436Z,22.30
2022-12-01T10:39:42.037Z,23.80
2022-12-01T10:42:49.886Z,22.85
2022-12-01T10:45:53.587Z,24.88
2022-12-01T10:49:00.631Z,25.65
2022-12-01T10:52:02.735Z,25.65
2022-12-01T10:55:27.963Z,25.60
2022-12-01T10:58:33.659Z,24.17
2022-12-01T11:01:36.329Z,23.85
2022-12-01T11:04:47.643Z,24.35
2022-12-01T11:07:49.965Z,25.83
2022-12-01T11:10:52.317Z,25.10
2022-12-01T11:13:56.059Z,24.55
2022-12-01T11:17:26.646Z,22.20
2022-12-01T11:20:33.626Z,22.55
2022-12-01T11:23:37.501Z,23.05
2022-12-01T11:26:39.540Z,24.30
2022-12-01T11:29:42.367Z,24.00
2022-12-01T11:32:56.052Z,23.25
2022-12-01T11:35:58.397Z,23.95
2022-12-01T11:39:02.032Z,22.80
2022-12-01T11:42:07.241Z,22.63
2022-12-01T11:45:21.378Z,22.73
2022-12-01T11:48:29.620Z,22.65
2022-12-01T11:51:37.662Z,23.65
2022-12-01T11:54:56.064Z,22.63
2022-12-01T11:58:03.932Z,23.52
2022-12-01T12:01:21.966Z,23.23
2022-12-01T12:04:36.149Z,23.17
2022-12-01T12:07:59.959Z,22.33
2022-12-01T12:11:19.212Z,23.95
2022-12-01T12:14:38.107Z,23.70
2022-12-01T12:18:18.286Z,23.52
2022-12-01T12:21:29.811Z,24.58
2022-12-01T12:24:46.766Z,25.02
2022-12-01T12:28:13.065Z,24.50
2022-12-01T12:31:36.457Z,25.30
2022-12-01T12:34:50.863Z,25.70
2022-12-01T12:38:25.094Z,26.95
2022-12-01T12:41:40.298Z,26.30
2022-12-01T12:45:11.624Z,27.33
2022-12-01T12:49:03.905Z,26.30
2022-12-01T12:52:25.413Z,27.95
2022-12-01T12:55:52.780Z,26.27
2022-12-01T12:59:23.034Z,27.02
2022-12-01T13:02:51.568Z,28.50
2022-12-01T13:06:06.904Z,27.13
2022-12-01T13:09:17.949Z,26.40
2022-12-01T13:12:31.401Z,27.30
2022-12-01T13:15:36.553Z,28.67
2022-12-01T13:18:46.965Z,28.08
2022-12-01T13:21:51.322Z,27.08
2022-12-01T13:24:53.611Z,27.77
2022-12-01T13:27:59.010Z,26.38
2022-12-01T13:31:05.853Z,27.42
2022-12-01T13:34:08.091Z,27.05
2022-12-01T13:37:11.191Z,27.98
2022-12-01T13:40:28.156Z,28.75
2022-12-01T13:43:30.698Z,29.15
2022-12-01T13:46:44.431Z,28.73
2022-12-01T13:49:51.900Z,29.55
2022-12-01T13:53:10.308Z,28.60
2022-12-01T13:56:15.337Z,27.80
2022-12-01T13:59:41.227Z,29.00
2022-12-01T14:02:43.679Z,29.20
2022-12-01T14:05:57.189Z,29.98
2022-12-01T14:09:02.781Z,28.75
2022-12-01T14:12:19.444Z,29.40
2022-12-01T14:15:32.849Z,28.10
2022-12-01T14:18:39.042Z,29.73
2022-12-01T14:21:45.568Z,28.30
2022-12-01T14:24:53.199Z,30.67
2022-12-01T14:27:58.360Z,29.92
2022-12-01T14:31:02.976Z,29.00
2022-12-01T14:34:18.944Z,28.42
2022-12-01T14:37:25.628Z,28.85
2022-12-01T14:40:30.248Z,31.00
2022-12-01T14:43:51.585Z,29.88
2022-12-01T14:47:02.339Z,30.20
2022-12-01T14:50:24.915Z,30.42
2022-12-01T14:53:31.994Z,29.55
2022-12-01T14:56:36.453Z,30.45
2022-12-01T14:59:38.945Z,30.45
2022-12-01T15:03:01.530Z,30.67
2022-12-01T15:06:03.809Z,31.90
2022-12-01T15:09:32.874Z,30.75
2022-12-01T15:12:33.596Z,32.55
2022-12-01T15:15:37.715Z,31.98
2022-12-01T15:18:39.852Z,32.53
2022-12-01T15:21:42.140Z,33.13
2022-12-01T15:24:45.058Z,31.23
2022-12-01T15:28:21.063Z,32.85
2022-12-01T15:31:23.230Z,31.95
2022-12-01T15:34:36.340Z,34.17
2022-12-01T15:37:43.913Z,34.65
2022-12-01T15:41:27.422Z,34.95
2022-12-01T15:44:20.625Z,33.13
2022-12-01T15:47:44.385Z,32.92
2022-12-01T15:50:59.521Z,32.58
2022-12-01T15:54:02.591Z,31.92
2022-12-01T15:57:05.978Z,32.75
2022-12-01T16:00:22.310Z,31.90
2022-12-01T16:03:28.249Z,34.15
2022-12-01T16:06:40.538Z,32.15
2022-12-01T16:10:00.355Z,31.10
2022-12-01T16:13:40.292Z,38.88
2022-12-01T16:16:45.536Z,38.88
2022-12-01T16:19:47.804Z,39.83
2022-12-01T16:23:02.572Z,38.00
2022-12-01T16:26:08.744Z,38.30
2022-12-01T16:29:22.291Z,43.15
2022-12-01T16:32:30.497Z,38.53
2022-12-01T16:35:35.307Z,38.83
2022-12-01T16:38:37.807Z,40.35
2022-12-01T16:41:44.434Z,38.95
2022-12-01T16:44:46.871Z,36.53
2022-12-01T16:47:49.838Z,39.75
2022-12-01T16:50:53.643Z,41.67
2022-12-01T16:53:55.967Z,43.60
2022-12-01T16:56:58.424Z,43.72
2022-12-01T17:00:00.565Z,37.95
2022-12-01T17:03:03.248Z,38.30
2022-12-01T17:06:06.266Z,40.83
2022-12-01T17:09:08.733Z,39.35
2022-12-01T17:12:10.896Z,40.55
2022-12-01T17:15:13.172Z,38.90
2022-12-01T17:18:17.163Z,37.25
2022-12-01T17:21:19.499Z,40.55
2022-12-01T17:24:21.898Z,38.25
2022-12-01T17:27:25.311Z,39.72
2022-12-01T17:30:27.811Z,38.28
2022-12-01T17:33:30.105Z,39.35
2022-12-01T17:36:32.413Z,37.33
2022-12-01T17:39:34.474Z,37.65
2022-12-01T17:42:37.466Z,40.83
2022-12-01T17:45:42.158Z,39.85
2022-12-01T17:48:46.508Z,38.85
2022-12-01T17:51:48.597Z,42.92
2022-12-01T17:54:51.171Z,41.17
2022-12-01T17:57:53.959Z,41.22
2022-12-01T18:00:56.320Z,42.90
2022-12-01T18:03:59.472Z,45.60
2022-12-01T18:07:01.506Z,39.42
2022-12-01T18:10:03.974Z,40.00
2022-12-01T18:13:06.390Z,39.67
2022-12-01T18:16:20.884Z,39.75
2022-12-01T18:19:23.193Z,39.05
2022-12-01T18:22:27.105Z,37.35
2022-12-01T18:25:29.467Z,38.20
2022-12-01T18:28:32.508Z,39.85
2022-12-01T18:31:35.893Z,39.42
2022-12-01T18:34:39.237Z,37.65
2022-12-01T18:37:41.753Z,41.38
2022-12-01T18:40:43.830Z,39.97
2022-12-01T18:43:46.289Z,37.70
2022-12-01T18:46:48.723Z,41.60
2022-12-01T18:49:51.350Z,38.03
2022-12-01T18:52:53.415Z,37.15
2022-12-01T18:55:55.955Z,37.60
2022-12-01T18:59:01.725Z,38.85
2022-12-01T19:02:04.242Z,37.38
2022-12-01T19:05:06.559Z,37.75
2022-12-01T19:08:09.067Z,39.55
2022-12-01T19:11:11.248Z,38.78
2022-12-01T19:14:18.828Z,41.10
2022-12-01T19:17:21.343Z,38.40
2022-12-01T19:20:24.086Z,38.28
2022-12-01T19:23:26.990Z,35.47
2022-12-01T19:26:29.183Z,37.42
2022-12-01T19:29:32.288Z,35.67
2022-12-01T19:32:35.726Z,36.03
2022-12-01T19:35:38.312Z,34.72
2022-12-01T19:38:42.142Z,35.30
2022-12-01T19:41:45.791Z,33.92
2022-12-01T19:44:53.360Z,40.22
2022-12-01T19:47:56.446Z,37.70
2022-12-01T19:50:58.555Z,53.45
2022-12-01T19:54:01.973Z,45.20
2022-12-01T19:57:05.179Z,47.90
2022-12-01T20:00:08.452Z,37.85
2022-12-01T20:03:11.107Z,35.25
2022-12-01T20:06:20.092Z,34.90
2022-12-01T20:09:23.094Z,39.00
2022-12-01T20:12:26.029Z,38.58
2022-12-01T20:15:28.553Z,36.42
2022-12-01T20:18:31.585Z,35.70
2022-12-01T20:21:36.941Z,32.88
2022-12-01T20:24:42.506Z,34.03
2022-12-01T20:27:50.914Z,37.67
2022-12-01T20:30:53.988Z,36.83
2022-12-01T20:33:59.300Z,38.15
2022-12-01T20:37:01.869Z,42.40
2022-12-01T20:40:05.060Z,41.75
2022-12-01T20:43:07.678Z,40.95
2022-12-01T20:46:11.435Z,37.35
2022-12-01T20:49:15.232Z,36.10
2022-12-01T20:52:17.353Z,34.33
2022-12-01T20:55:19.882Z,32.45
2022-12-01T20:58:23.017Z,33.00
2022-12-01T21:01:26.368Z,33.17
2022-12-01T21:04:28.998Z,37.22
2022-12-01T21:07:31.664Z,57.08
2022-12-01T21:10:37.968Z,79.43
2022-12-01T21:13:42.311Z,87.03
2022-12-01T21:16:48.318Z,62.17
2022-12-01T21:20:18.040Z,47.80
2022-12-01T21:23:20.435Z,48.83
2022-12-01T21:26:23.010Z,51.85
2022-12-01T21:29:28.140Z,50.45
2022-12-01T21:32:33.316Z,52.53
2022-12-01T21:35:35.491Z,51.28
2022-12-01T21:38:37.499Z,51.42
2022-12-01T21:41:40.392Z,53.85
2022-12-01T21:44:42.810Z,55.67
2022-12-01T21:47:45.050Z,55.88
2022-12-01T21:50:52.355Z,55.13
2022-12-01T21:53:56.514Z,53.90
2022-12-01T21:56:58.737Z,49.45
2022-12-01T22:00:33.002Z,49.55
2022-12-01T22:03:43.098Z,51.20
2022-12-01T22:06:48.306Z,51.35
2022-12-01T22:09:51.321Z,52.50
2022-12-01T22:12:53.497Z,52.85
2022-12-01T22:15:55.548Z,56.60
2022-12-01T22:18:59.885Z,58.80
2022-12-01T22:22:10.753Z,65.10
2022-12-01T22:25:25.075Z,58.00
2022-12-01T22:28:27.287Z,53.33
2022-12-01T22:31:29.617Z,54.33
2022-12-01T22:34:31.839Z,53.83
2022-12-01T22:37:36.427Z,51.00
2022-12-01T22:40:53.855Z,51.10
2022-12-01T22:43:57.349Z,48.88
2022-12-01T22:47:02.447Z,49.53
2022-12-01T22:50:24.624Z,49.13
2022-12-01T22:53:30.643Z,45.13
2022-12-01T22:56:37.789Z,45.58
2022-12-01T22:59:42.629Z,44.85
2022-12-01T23:02:47.526Z,46.47
2022-12-01T23:05:55.540Z,43.53
2022-12-01T23:08:57.590Z,45.65
2022-12-01T23:12:13.913Z,41.53
2022-12-01T23:15:22.270Z,42.67
2022-12-01T23:18:29.354Z,43.47
2022-12-01T23:21:31.383Z,43.13
2022-12-01T23:24:34.254Z,42.40
2022-12-01T23:27:37.795Z,39.65
2022-12-01T23:30:42.692Z,45.63
2022-12-01T23:33:44.643Z,44.78
2022-12-01T23:36:50.083Z,51.10
2022-12-01T23:39:52.237Z,48.28
2022-12-01T23:42:54.795Z,49.17
2022-12-01T23:46:02.902Z,50.92
2022-12-01T23:49:14.075Z,51.35
2022-12-01T23:52:20.136Z,44.13
2022-12-01T23:55:30.162Z,46.17
2022-12-01T23:58:32.690Z,41.15
